SND1 NZNR-NZAA
Flight info
| Callsign | SND1 |
|---|---|
| Flight time | N/A |
| Altitude | 27000 |
| Route | BOVSA H372 MOOSE Y601 DODKU Q132 MERAS Q119 AA |
| Aircraft | A319/M-SDE3FGHIRWY/LB1 |
Departure
| Time | 2026-04-29 00:53 |
|---|---|
| Airport | Hawke's Bay Airport (NZNR) |
Arrival
| Time | N/A |
|---|---|
| Airport | Auckland International Airport (NZAA) |
| Time | Latitude | Longitude | Altitude | Speed | Heading |
|---|---|---|---|---|---|
| 2026-04-29 00:31 | -39.46763 | 176.87083 | 17 ft | 0 kts | 201° |
| 2026-04-29 00:48 | -39.46763 | 176.87082 | 16 ft | 1 kts | 214° |
| 2026-04-29 00:48 | -39.46749 | 176.87076 | 16 ft | 4 kts | 357° |
| 2026-04-29 00:48 | -39.46712 | 176.87067 | 16 ft | 7 kts | 352° |
| 2026-04-29 00:49 | -39.46678 | 176.87034 | 16 ft | 7 kts | 267° |
| 2026-04-29 00:49 | -39.46671 | 176.86968 | 16 ft | 8 kts | 274° |
| 2026-04-29 00:49 | -39.46668 | 176.86880 | 16 ft | 10 kts | 275° |
| 2026-04-29 00:49 | -39.46668 | 176.86775 | 16 ft | 13 kts | 241° |
| 2026-04-29 00:50 | -39.46754 | 176.86740 | 16 ft | 14 kts | 185° |
| 2026-04-29 00:50 | -39.46858 | 176.86726 | 16 ft | 16 kts | 184° |
| 2026-04-29 00:50 | -39.46977 | 176.86716 | 16 ft | 18 kts | 184° |
| 2026-04-29 00:50 | -39.47108 | 176.86703 | 16 ft | 20 kts | 185° |
| 2026-04-29 00:51 | -39.47254 | 176.86685 | 16 ft | 22 kts | 185° |
| 2026-04-29 00:51 | -39.47412 | 176.86667 | 16 ft | 24 kts | 184° |
| 2026-04-29 00:51 | -39.47582 | 176.86650 | 16 ft | 25 kts | 184° |
| 2026-04-29 00:51 | -39.47716 | 176.86649 | 16 ft | 13 kts | 166° |
| 2026-04-29 00:52 | -39.47735 | 176.86626 | 16 ft | 1 kts | 303° |
| 2026-04-29 00:52 | -39.47723 | 176.86627 | 16 ft | 2 kts | 18° |
| 2026-04-29 00:52 | -39.47696 | 176.86637 | 16 ft | 8 kts | 7° |
| 2026-04-29 00:52 | -39.47346 | 176.86680 | 18 ft | 97 kts | 5° |
| 2026-04-29 00:53 | -39.46779 | 176.86741 | 19 ft | 149 kts | 5° |
| 2026-04-29 00:53 | -39.45667 | 176.86864 | 667 ft | 163 kts | 6° |
| 2026-04-29 00:53 | -39.44558 | 176.87006 | 1690 ft | 159 kts | 6° |
| 2026-04-29 00:53 | -39.43419 | 176.87156 | 2499 ft | 172 kts | 6° |
| 2026-04-29 00:54 | -39.42152 | 176.87327 | 3053 ft | 200 kts | 5° |
| 2026-04-29 00:54 | -39.40662 | 176.87376 | 3726 ft | 226 kts | 349° |
| 2026-04-29 00:54 | -39.39091 | 176.86792 | 4621 ft | 241 kts | 339° |
| 2026-04-29 00:54 | -39.37511 | 176.85993 | 5761 ft | 247 kts | 336° |
| 2026-04-29 00:55 | -39.35932 | 176.85142 | 6894 ft | 253 kts | 336° |
| 2026-04-29 00:55 | -39.34280 | 176.84261 | 8031 ft | 259 kts | 336° |
| 2026-04-29 00:55 | -39.32592 | 176.83391 | 9173 ft | 263 kts | 337° |
| 2026-04-29 00:55 | -39.30969 | 176.82580 | 10203 ft | 268 kts | 338° |
| 2026-04-29 00:56 | -39.29178 | 176.81709 | 11295 ft | 273 kts | 338° |
| 2026-04-29 00:56 | -39.27384 | 176.80851 | 12334 ft | 278 kts | 338° |
| 2026-04-29 00:56 | -39.25574 | 176.79990 | 13310 ft | 284 kts | 338° |
| 2026-04-29 00:56 | -39.23659 | 176.79084 | 14042 ft | 300 kts | 338° |
| 2026-04-29 00:57 | -39.21644 | 176.78133 | 14454 ft | 324 kts | 338° |
| 2026-04-29 00:57 | -39.19422 | 176.77085 | 14896 ft | 345 kts | 338° |
| 2026-04-29 00:57 | -39.17140 | 176.76013 | 15625 ft | 353 kts | 338° |
| 2026-04-29 00:57 | -39.14815 | 176.74917 | 16435 ft | 359 kts | 338° |
| 2026-04-29 00:58 | -39.12460 | 176.73810 | 17255 ft | 363 kts | 338° |
| 2026-04-29 00:58 | -39.10067 | 176.72688 | 18048 ft | 368 kts | 338° |
| 2026-04-29 00:58 | -39.07645 | 176.71553 | 18831 ft | 373 kts | 338° |
| 2026-04-29 00:58 | -39.05184 | 176.70400 | 19583 ft | 378 kts | 338° |
| 2026-04-29 00:59 | -39.02701 | 176.69240 | 20336 ft | 382 kts | 338° |
| 2026-04-29 00:59 | -39.00277 | 176.68107 | 21047 ft | 387 kts | 338° |
| 2026-04-29 00:59 | -38.97733 | 176.66930 | 21757 ft | 391 kts | 339° |
| 2026-04-29 00:59 | -38.95134 | 176.65808 | 22455 ft | 396 kts | 340° |
| 2026-04-29 01:00 | -38.92496 | 176.64730 | 23125 ft | 400 kts | 341° |
| 2026-04-29 01:00 | -38.89790 | 176.63650 | 23776 ft | 404 kts | 341° |
| 2026-04-29 01:00 | -38.87128 | 176.62458 | 24380 ft | 407 kts | 335° |
| 2026-04-29 01:00 | -38.84556 | 176.60903 | 24968 ft | 410 kts | 333° |
| 2026-04-29 01:01 | -38.81980 | 176.59310 | 25544 ft | 413 kts | 333° |
| 2026-04-29 01:01 | -38.79667 | 176.57871 | 26029 ft | 416 kts | 333° |
| 2026-04-29 01:01 | -38.77064 | 176.56249 | 26574 ft | 419 kts | 333° |
| 2026-04-29 01:01 | -38.74456 | 176.54623 | 27089 ft | 422 kts | 333° |
| 2026-04-29 01:02 | -38.71810 | 176.52981 | 27331 ft | 423 kts | 333° |
| 2026-04-29 01:02 | -38.69161 | 176.51341 | 27393 ft | 422 kts | 333° |